Carbondale, IL (62901)

11:03 AM CDT on July 29, 2016 (GMT -0500)
Carbondale City Hall | | Change Station

Elev 430 ft 37.73 °N, 89.22 °W | Updated 6 minutes ago

Mostly Cloudy
Mostly Cloudy
80.4 °F
Feels Like 86 °F
N
0.0
Wind Variable Wind from SW
Gusts 0.0 mph

Today
High -- | Low -- °F
--% Chance of Precip.
Yesterday
High -- | Low -- °F
Precip. -- in
Pressure 29.96 in
Visibility 10.0 miles
Clouds Scattered Clouds 2200 ft
Mostly Cloudy 3900 ft
Heat Index 86 °F
Dew Point 75 °F
Humidity 84%
Rainfall 0.00 in
Snow Depth Not available.
5:58 AM 8:07 PM
Waning Crescent, 21% visible
SPECI KMDH 291559Z VRB03KT 10SM SCT022 BKN039 28/22 A2996 RMK AO2 T02780222
Pressure 29.96 in
Visibility 10.0 miles
Clouds Scattered Clouds 2200 ft
Mostly Cloudy 3900 ft
Heat Index 86 °F
Dew Point 75 °F
Humidity 84%
Rainfall 0.00 in
Snow Depth Not available.
5:58 AM 8:07 PM
Waning Crescent, 21% visible
SPECI KMDH 291559Z VRB03KT 10SM SCT022 BKN039 28/22 A2996 RMK AO2 T02780222

10-Day Weather Forecast

Almanac

Astronomy

Jul. 29, 2016 Rise Set
Actual Time
Civil Twilight
Nautical Twilight
Astronomical Twilight
Moon
Length of Visible Light
Length of Day
Tomorrow will be .
, % of the Moon is Illuminated

Today's Extremes

State Highs State Lows

Community

WunderPhotos

Upload Photos

1,928,358 photos uploaded!

WunderBlog® & News

Nearby

Air Quality

  Air Quality AQ Index Pollutant
Not available.

Snow Depth

Station Depth Elevation

Earthquake Activity

City Distance Mag. Time & Date
Minimum magnitude displayed is 2.5.

Coastal Water Temperatures

Place Temperature

Stations

Nearby Weather Stations

Station Location Temp. Windchill Dew Point Humidity Wind Precip. Elev Updated Type
                   

Watches & Warnings

There are currently no watches in effect.